Time;durP1;ratioP1;P1;durP2;ratioP2;P2;SDS_P1;SDS_P2;PMS_P1;PMS_P2;Temp;Humidity;BMP_temperature;BMP_pressure;BME280_temperature;BME280_humidity;BME280_pressure;Samples;Min_cycle;Max_cycle;Signal;HPM_P1;HPM_P2
2022/10/20 00:01:23;;;;;;;16.75;9.38;;;14.20;99.90;;;;;;5016989;28;20029;-78
2022/10/20 00:03:49;;;;;;;14.13;9.13;;;14.20;99.90;;;;;;5031844;28;20482;-77
2022/10/20 00:06:27;;;;;;;14.80;9.18;;;14.20;99.90;;;;;;5016431;28;20417;-78
2022/10/20 00:08:55;;;;;;;15.15;9.50;;;14.20;99.90;;;;;;5010977;28;20052;-78
2022/10/20 00:11:22;;;;;;;14.63;8.60;;;14.20;99.90;;;;;;5016474;28;20038;-77
2022/10/20 00:13:52;;;;;;;14.35;9.20;;;14.20;99.90;;;;;;5017682;28;20092;-76
2022/10/20 00:16:19;;;;;;;15.82;9.60;;;14.20;99.90;;;;;;5002946;28;20056;-76
2022/10/20 00:18:45;;;;;;;12.75;8.80;;;14.10;99.90;;;;;;5016643;28;20033;-77
2022/10/20 00:21:18;;;;;;;16.58;9.23;;;14.20;99.90;;;;;;5014102;28;20030;-78
2022/10/20 00:23:47;;;;;;;15.93;9.57;;;14.20;99.90;;;;;;5018048;28;20048;-78
2022/10/20 00:26:15;;;;;;;14.20;9.00;;;14.20;99.90;;;;;;5012586;28;20044;-78
2022/10/20 00:28:41;;;;;;;14.80;8.48;;;14.10;99.90;;;;;;5016370;28;20104;-77
2022/10/20 00:31:07;;;;;;;16.65;9.45;;;14.20;99.90;;;;;;5014755;28;20022;-76
2022/10/20 00:33:33;;;;;;;14.25;9.27;;;14.10;99.90;;;;;;5010114;28;20117;-77
2022/10/20 00:36:00;;;;;;;13.05;8.77;;;14.10;99.90;;;;;;5020804;28;20053;-77
2022/10/20 00:38:26;;;;;;;17.52;8.80;;;14.10;99.90;;;;;;5016965;28;20030;-77
2022/10/20 00:40:52;;;;;;;17.13;10.13;;;14.10;99.90;;;;;;5026825;28;20072;-77
2022/10/20 00:43:20;;;;;;;15.32;9.45;;;14.10;99.90;;;;;;5013534;28;20026;-76
2022/10/20 00:45:53;;;;;;;14.07;8.88;;;14.10;99.90;;;;;;5012751;28;20084;-76
2022/10/20 00:48:22;;;;;;;14.88;9.88;;;14.10;99.90;;;;;;5029559;28;20091;-77
2022/10/20 00:50:53;;;;;;;17.83;9.57;;;14.10;99.90;;;;;;5029985;28;20038;-77
2022/10/20 00:53:21;;;;;;;15.98;9.05;;;14.00;99.90;;;;;;5012649;28;20088;-77
2022/10/20 00:55:53;;;;;;;12.95;8.93;;;14.00;99.90;;;;;;5032098;28;20028;-77
2022/10/20 00:58:22;;;;;;;15.23;9.75;;;14.00;99.90;;;;;;5031194;28;20036;-77
2022/10/20 01:00:56;;;;;;;16.38;10.50;;;14.00;99.90;;;;;;5008402;28;20517;-76
2022/10/20 01:03:35;;;;;;;21.25;9.95;;;14.00;99.90;;;;;;5012289;28;20034;-76
2022/10/20 01:06:00;;;;;;;13.70;9.27;;;14.00;99.90;;;;;;5016094;28;20037;-77
2022/10/20 01:08:26;;;;;;;13.32;7.88;;;14.00;99.90;;;;;;5013622;28;20034;-77
2022/10/20 01:11:05;;;;;;;13.52;8.63;;;14.00;99.90;;;;;;5012968;28;20029;-76
2022/10/20 01:13:48;;;;;;;14.23;9.18;;;13.90;99.90;;;;;;5011676;28;20026;-77
2022/10/20 01:16:19;;;;;;;16.90;9.02;;;14.00;99.90;;;;;;5014485;28;20034;-76
2022/10/20 01:19:28;;;;;;;15.60;9.25;;;14.00;99.90;;;;;;5023665;28;20145;-76
2022/10/20 01:22:07;;;;;;;14.90;8.95;;;14.00;99.90;;;;;;4986613;28;20141;-74
2022/10/20 01:24:57;;;;;;;16.00;9.00;;;13.90;99.90;;;;;;5007103;28;20057;-75
2022/10/20 01:27:46;;;;;;;15.27;9.00;;;14.00;99.90;;;;;;5008069;28;20586;-75
2022/10/20 01:30:22;;;;;;;17.50;9.65;;;14.00;99.90;;;;;;5023830;28;20036;-76
2022/10/20 01:33:25;;;;;;;18.42;9.95;;;13.90;99.90;;;;;;5014165;28;20059;-76
2022/10/20 01:35:51;;;;;;;15.85;9.35;;;13.90;99.90;;;;;;5011715;28;20083;-76
2022/10/20 01:38:37;;;;;;;15.23;9.95;;;13.90;99.90;;;;;;5031622;28;20116;-77
2022/10/20 01:41:19;;;;;;;16.80;8.90;;;13.90;99.90;;;;;;5016078;28;20089;-75
2022/10/20 01:43:49;;;;;;;12.82;9.20;;;13.90;99.90;;;;;;5009503;28;20041;-78
2022/10/20 01:46:18;;;;;;;15.52;9.50;;;14.00;99.90;;;;;;5025342;28;20037;-77
2022/10/20 01:48:45;;;;;;;14.25;9.57;;;14.00;99.90;;;;;;5012173;28;20101;-76
2022/10/20 01:51:26;;;;;;;18.23;9.70;;;14.00;99.90;;;;;;5016923;28;20037;-78
2022/10/20 01:53:52;;;;;;;17.30;9.43;;;14.00;99.90;;;;;;5019913;28;20060;-77
2022/10/20 01:56:39;;;;;;;16.52;10.70;;;14.00;99.90;;;;;;5015766;28;20108;-77
2022/10/20 01:59:18;;;;;;;15.23;9.98;;;14.00;99.90;;;;;;5029203;28;20029;-76
2022/10/20 02:02:03;;;;;;;14.90;10.07;;;13.90;99.90;;;;;;5022094;28;20030;-77
2022/10/20 02:04:53;;;;;;;21.30;10.10;;;14.00;99.90;;;;;;5025448;28;20061;-77
2022/10/20 02:07:27;;;;;;;17.25;9.68;;;13.90;99.90;;;;;;5005646;28;20018;-77
2022/10/20 02:10:32;;;;;;;16.85;9.98;;;13.90;99.90;;;;;;5011365;28;20048;-77
2022/10/20 02:13:04;;;;;;;20.98;10.10;;;13.90;99.90;;;;;;4973392;28;20491;-77
2022/10/20 02:15:35;;;;;;;17.30;11.82;;;13.90;99.90;;;;;;5008392;28;20030;-77
2022/10/20 02:18:04;;;;;;;20.80;10.43;;;13.90;99.90;;;;;;5013772;28;20038;-77
2022/10/20 02:20:31;;;;;;;17.58;10.68;;;13.90;99.90;;;;;;5025868;23;20038;-78
2022/10/20 02:22:58;;;;;;;18.90;10.45;;;13.80;99.90;;;;;;5007601;28;20116;-79
2022/10/20 02:25:25;;;;;;;15.35;9.80;;;13.80;99.90;;;;;;5022321;28;20026;-79
2022/10/20 02:27:53;;;;;;;18.00;10.88;;;13.80;99.90;;;;;;5004999;28;20114;-79
2022/10/20 02:30:20;;;;;;;22.60;11.85;;;13.80;99.90;;;;;;5001771;28;20080;-78
2022/10/20 02:32:50;;;;;;;16.88;10.52;;;13.80;99.90;;;;;;5035828;23;20096;-77
2022/10/20 02:35:22;;;;;;;19.50;11.25;;;13.80;99.90;;;;;;5052386;28;20433;-78
2022/10/20 02:37:47;;;;;;;20.25;11.85;;;13.80;99.90;;;;;;5036711;28;20041;-77
2022/10/20 02:40:16;;;;;;;19.13;11.32;;;13.80;99.90;;;;;;5035718;28;20410;-78
2022/10/20 02:42:42;;;;;;;18.95;11.25;;;13.70;99.90;;;;;;5052046;28;20033;-77
2022/10/20 02:45:11;;;;;;;16.80;11.35;;;13.70;99.90;;;;;;5036256;28;20022;-78
2022/10/20 02:47:36;;;;;;;18.13;11.60;;;13.70;99.90;;;;;;5036717;28;20025;-78
2022/10/20 02:50:06;;;;;;;20.48;11.85;;;13.70;99.90;;;;;;5035896;28;20021;-77
2022/10/20 02:52:39;;;;;;;19.52;11.80;;;13.70;99.90;;;;;;5035776;28;20024;-78
2022/10/20 02:55:07;;;;;;;20.20;11.87;;;13.70;99.90;;;;;;5036785;28;20485;-77
2022/10/20 02:57:33;;;;;;;18.73;11.30;;;13.70;99.90;;;;;;5037108;28;20036;-78
2022/10/20 02:59:59;;;;;;;21.77;12.23;;;13.70;99.90;;;;;;5036588;28;20026;-78
2022/10/20 03:02:24;;;;;;;20.42;12.27;;;13.70;99.90;;;;;;5037139;28;20033;-77
2022/10/20 03:04:50;;;;;;;18.63;11.75;;;13.60;99.90;;;;;;5036487;28;20025;-79
2022/10/20 03:07:27;;;;;;;18.52;10.95;;;13.70;99.90;;;;;;5037327;28;20029;-79
2022/10/20 03:09:56;;;;;;;20.05;11.45;;;13.60;99.90;;;;;;5052288;28;20021;-77
2022/10/20 03:12:24;;;;;;;20.92;11.93;;;13.70;99.90;;;;;;5037037;28;20478;-78
2022/10/20 03:14:50;;;;;;;20.65;11.43;;;13.60;99.90;;;;;;5037599;28;20030;-78
2022/10/20 03:17:18;;;;;;;24.80;12.25;;;13.60;99.90;;;;;;5052643;28;20021;-77
2022/10/20 03:19:47;;;;;;;19.52;11.70;;;13.60;99.90;;;;;;5052496;28;20048;-79
2022/10/20 03:22:15;;;;;;;19.60;11.27;;;13.60;99.90;;;;;;5036206;28;20030;-78
2022/10/20 03:24:41;;;;;;;18.52;11.68;;;13.60;99.90;;;;;;5052268;28;20032;-78
2022/10/20 03:27:13;;;;;;;19.85;12.15;;;13.60;99.90;;;;;;5052064;28;20021;-78
2022/10/20 03:29:44;;;;;;;19.58;12.55;;;13.50;99.90;;;;;;5036494;28;20018;-79
2022/10/20 03:32:10;;;;;;;19.08;11.68;;;13.50;99.90;;;;;;5051515;28;20048;-79
2022/10/20 03:34:35;;;;;;;25.90;12.18;;;13.60;99.90;;;;;;5036810;28;20026;-77
2022/10/20 03:37:04;;;;;;;18.83;11.88;;;13.50;99.90;;;;;;5051770;28;20037;-75
2022/10/20 03:39:33;;;;;;;22.38;13.02;;;13.50;99.90;;;;;;5036651;28;20382;-79
2022/10/20 03:41:59;;;;;;;21.50;12.57;;;13.50;99.90;;;;;;5040100;28;20017;-80
2022/10/20 03:44:24;;;;;;;20.83;12.00;;;13.50;99.90;;;;;;5039599;28;20155;-78
2022/10/20 03:46:53;;;;;;;24.67;12.73;;;13.50;99.90;;;;;;5039606;28;20389;-77
2022/10/20 03:49:18;;;;;;;22.17;12.93;;;13.50;99.90;;;;;;5039130;28;20045;-78
2022/10/20 03:51:44;;;;;;;23.10;11.88;;;13.50;99.90;;;;;;5039222;28;20029;-77
2022/10/20 03:54:10;;;;;;;25.65;11.95;;;13.50;99.90;;;;;;5039275;28;20112;-79
2022/10/20 03:56:35;;;;;;;17.88;10.95;;;13.50;99.90;;;;;;5039287;28;20063;-81
2022/10/20 03:59:01;;;;;;;20.40;12.70;;;13.50;99.90;;;;;;5039095;28;20033;-80
2022/10/20 04:01:30;;;;;;;23.45;11.60;;;13.50;99.90;;;;;;5046509;28;20029;-78
2022/10/20 04:03:55;;;;;;;19.90;11.90;;;13.50;99.90;;;;;;5031099;28;20040;-72
2022/10/20 04:06:24;;;;;;;21.50;11.70;;;13.50;99.90;;;;;;5042949;28;20227;-70
2022/10/20 04:08:49;;;;;;;19.05;11.23;;;13.50;99.90;;;;;;5054641;28;20504;-72
2022/10/20 04:11:21;;;;;;;19.23;12.73;;;13.60;99.90;;;;;;5043645;28;20017;-72
2022/10/20 04:13:46;;;;;;;19.98;12.05;;;13.50;99.90;;;;;;5028984;28;20022;-71
2022/10/20 04:16:15;;;;;;;21.25;12.48;;;13.60;99.90;;;;;;5029281;28;20030;-72
2022/10/20 04:18:41;;;;;;;22.65;13.48;;;13.60;99.90;;;;;;5031417;28;20481;-71
2022/10/20 04:21:06;;;;;;;18.30;11.45;;;13.60;99.90;;;;;;5034038;28;20086;-72
2022/10/20 04:23:32;;;;;;;19.38;11.95;;;13.60;99.90;;;;;;5034945;28;20029;-78
2022/10/20 04:25:57;;;;;;;21.77;13.05;;;13.70;99.90;;;;;;5051574;28;20026;-76
2022/10/20 04:28:23;;;;;;;19.50;12.05;;;13.60;99.90;;;;;;5034998;28;20041;-78
2022/10/20 04:30:49;;;;;;;20.83;11.70;;;13.60;99.90;;;;;;5038606;28;20101;-78
2022/10/20 04:33:15;;;;;;;24.52;12.75;;;13.60;99.90;;;;;;5038562;28;20036;-78
2022/10/20 04:35:44;;;;;;;21.63;12.77;;;13.60;99.90;;;;;;5035794;28;20105;-78
2022/10/20 04:38:16;;;;;;;18.65;11.60;;;13.60;99.90;;;;;;5034109;28;20029;-78
2022/10/20 04:40:56;;;;;;;18.75;11.45;;;13.60;99.90;;;;;;5055850;28;20024;-80
2022/10/20 04:43:22;;;;;;;17.95;11.60;;;13.60;99.90;;;;;;5058216;28;20036;-78
2022/10/20 04:45:48;;;;;;;22.40;12.90;;;13.60;99.90;;;;;;5058747;28;20025;-80
2022/10/20 04:48:14;;;;;;;19.33;12.38;;;13.50;99.90;;;;;;5044306;28;20030;-79
2022/10/20 04:50:40;;;;;;;18.05;11.55;;;13.50;99.90;;;;;;5038646;28;20108;-79
2022/10/20 04:53:06;;;;;;;19.35;12.15;;;13.50;99.90;;;;;;5040593;28;20053;-77
2022/10/20 04:55:32;;;;;;;19.52;11.48;;;13.50;99.90;;;;;;5037424;28;20053;-80
2022/10/20 04:57:58;;;;;;;19.02;11.40;;;13.50;99.90;;;;;;5037412;28;20049;-79
2022/10/20 05:00:23;;;;;;;18.83;11.77;;;13.50;99.90;;;;;;5030279;28;20026;-78
2022/10/20 05:02:49;;;;;;;19.60;11.48;;;13.50;99.90;;;;;;5033479;28;20022;-79
2022/10/20 05:05:15;;;;;;;18.25;11.68;;;13.50;99.90;;;;;;5032908;28;20033;-80
2022/10/20 05:07:43;;;;;;;18.73;11.45;;;13.50;99.90;;;;;;5041200;28;20112;-83
2022/10/20 05:10:12;;;;;;;15.63;10.32;;;13.40;99.90;;;;;;5037802;28;20032;-83
2022/10/20 05:12:41;;;;;;;19.58;11.07;;;13.40;99.90;;;;;;5038174;28;20047;-81
2022/10/20 05:15:06;;;;;;;18.77;10.57;;;13.40;99.90;;;;;;5040782;28;20017;-84
2022/10/20 05:17:44;;;;;;;15.75;10.18;;;13.40;99.90;;;;;;5039602;28;20028;-81
2022/10/20 05:20:10;;;;;;;19.25;11.18;;;13.40;99.90;;;;;;5037443;28;20159;-81
2022/10/20 05:22:39;;;;;;;19.95;11.00;;;13.40;99.90;;;;;;5034892;28;20025;-82
2022/10/20 05:25:04;;;;;;;17.67;10.05;;;13.30;99.90;;;;;;5038862;28;20041;-82
2022/10/20 05:27:30;;;;;;;17.30;10.55;;;13.40;99.90;;;;;;5038716;28;20024;-81
2022/10/20 05:29:56;;;;;;;18.23;10.65;;;13.30;99.90;;;;;;5037617;28;20036;-81
2022/10/20 05:32:21;;;;;;;18.10;10.25;;;13.40;99.90;;;;;;5041153;28;20497;-81
2022/10/20 05:34:48;;;;;;;15.32;9.07;;;13.30;99.90;;;;;;5038338;28;20025;-79
2022/10/20 05:37:20;;;;;;;14.50;8.90;;;13.30;99.90;;;;;;5045153;28;20041;-80
2022/10/20 05:39:46;;;;;;;12.77;8.52;;;13.30;99.90;;;;;;5050028;28;20031;-79
2022/10/20 05:42:11;;;;;;;13.95;8.70;;;13.30;99.90;;;;;;5032671;28;20025;-71
2022/10/20 05:44:40;;;;;;;12.45;8.20;;;13.30;99.90;;;;;;5028621;28;21650;-71
2022/10/20 05:47:06;;;;;;;14.30;8.70;;;13.40;99.90;;;;;;5032207;28;20044;-80
2022/10/20 05:49:31;;;;;;;14.40;8.00;;;13.40;99.90;;;;;;5036402;28;20026;-79
2022/10/20 05:51:57;;;;;;;13.27;8.30;;;13.40;99.90;;;;;;5036854;28;20084;-79
2022/10/20 05:54:22;;;;;;;11.20;7.53;;;13.40;99.90;;;;;;5036552;28;20034;-81
2022/10/20 05:56:54;;;;;;;13.63;9.00;;;13.40;99.90;;;;;;5036440;28;20021;-80
2022/10/20 05:59:20;;;;;;;13.98;8.35;;;13.40;99.90;;;;;;5034995;28;20033;-80
2022/10/20 06:01:51;;;;;;;12.43;7.95;;;13.40;99.90;;;;;;5035188;28;20420;-78
2022/10/20 06:04:26;;;;;;;14.57;8.68;;;13.40;99.90;;;;;;5052594;28;20038;-79
2022/10/20 06:07:02;;;;;;;11.07;7.63;;;13.40;99.90;;;;;;5033159;28;20021;-79
2022/10/20 06:09:27;;;;;;;12.27;7.63;;;13.40;99.90;;;;;;5034231;28;20022;-80
2022/10/20 06:11:53;;;;;;;13.50;7.65;;;13.40;99.90;;;;;;5034959;28;20036;-79
2022/10/20 06:14:21;;;;;;;13.27;7.57;;;13.40;99.90;;;;;;5033435;28;20088;-79
2022/10/20 06:16:49;;;;;;;11.43;7.68;;;13.40;99.90;;;;;;5047344;28;20029;-78
2022/10/20 06:19:15;;;;;;;11.32;7.63;;;13.50;99.90;;;;;;5033959;28;20065;-79
2022/10/20 06:21:40;;;;;;;11.63;7.57;;;13.40;99.90;;;;;;5033655;28;20026;-79
2022/10/20 06:24:19;;;;;;;15.93;7.20;;;13.50;99.90;;;;;;5038853;28;20025;-78
2022/10/20 06:26:45;;;;;;;13.05;7.70;;;13.50;99.90;;;;;;5027583;28;20021;-77
2022/10/20 06:29:13;;;;;;;12.93;8.65;;;13.50;99.90;;;;;;5027876;28;20053;-80
2022/10/20 06:31:45;;;;;;;15.40;9.05;;;13.50;99.90;;;;;;5046708;28;20049;-78
2022/10/20 06:34:15;;;;;;;13.48;8.13;;;13.50;99.90;;;;;;5034737;28;20463;-79
2022/10/20 06:36:45;;;;;;;12.18;7.63;;;13.50;99.90;;;;;;5053084;28;20176;-80
2022/10/20 06:39:19;;;;;;;12.23;8.35;;;13.50;99.90;;;;;;5031057;28;20521;-80
2022/10/20 06:41:53;;;;;;;12.88;7.95;;;13.50;99.90;;;;;;5031980;28;20474;-78
2022/10/20 06:44:23;;;;;;;11.23;6.88;;;13.50;99.90;;;;;;5034296;28;20038;-79
2022/10/20 06:46:51;;;;;;;10.60;7.35;;;13.60;99.90;;;;;;5025489;28;20037;-79
2022/10/20 06:49:17;;;;;;;11.65;7.13;;;13.60;99.90;;;;;;5050699;28;20033;-79
2022/10/20 06:51:42;;;;;;;11.57;7.30;;;13.60;99.90;;;;;;5034823;28;20109;-80
2022/10/20 06:54:11;;;;;;;11.40;7.85;;;13.60;99.90;;;;;;5036525;28;20086;-79
2022/10/20 06:56:51;;;;;;;9.95;7.40;;;13.60;99.90;;;;;;5043520;28;20366;-79
2022/10/20 06:59:17;;;;;;;13.82;7.88;;;13.60;99.90;;;;;;5035477;28;20052;-79
2022/10/20 07:01:43;;;;;;;10.13;7.13;;;13.70;99.90;;;;;;5036744;28;20021;-79
2022/10/20 07:04:15;;;;;;;12.80;7.50;;;13.70;99.90;;;;;;5034231;28;20540;-79
2022/10/20 07:06:50;;;;;;;10.02;7.22;;;13.70;99.90;;;;;;5036676;28;20033;-79
2022/10/20 07:09:18;;;;;;;10.15;7.45;;;13.60;99.90;;;;;;5037270;28;20018;-78
2022/10/20 07:11:44;;;;;;;10.68;7.18;;;13.70;99.90;;;;;;5036369;28;20100;-78
2022/10/20 07:14:12;;;;;;;11.23;7.55;;;13.70;99.90;;;;;;5037954;28;20069;-79
2022/10/20 07:16:44;;;;;;;11.32;7.18;;;13.70;99.90;;;;;;5042432;28;20032;-79
2022/10/20 07:19:09;;;;;;;10.68;6.97;;;13.70;99.90;;;;;;5027788;28;20044;-80
2022/10/20 07:21:35;;;;;;;11.32;8.13;;;13.70;99.90;;;;;;5042032;28;20029;-78
2022/10/20 07:24:02;;;;;;;10.73;7.25;;;13.80;99.90;;;;;;5039212;28;20140;-76
2022/10/20 07:26:31;;;;;;;11.93;7.72;;;13.80;99.90;;;;;;5049630;28;20408;-78
2022/10/20 07:28:58;;;;;;;9.07;6.88;;;13.80;99.90;;;;;;5040166;28;20024;-79
2022/10/20 07:31:34;;;;;;;10.38;6.60;;;13.90;99.90;;;;;;5036558;28;20030;-79
2022/10/20 07:34:04;;;;;;;12.40;7.57;;;13.90;99.90;;;;;;5037416;28;20402;-78
2022/10/20 07:36:32;;;;;;;11.00;7.05;;;13.90;99.90;;;;;;5035529;28;20021;-79
2022/10/20 07:38:59;;;;;;;13.45;7.90;;;13.90;99.90;;;;;;5036525;28;20030;-78
2022/10/20 07:41:26;;;;;;;11.85;7.55;;;13.90;99.90;;;;;;5034280;28;20042;-77
2022/10/20 07:43:55;;;;;;;10.95;6.88;;;14.00;99.90;;;;;;5036000;28;20028;-78
2022/10/20 07:46:22;;;;;;;12.05;7.20;;;14.00;99.90;;;;;;5038514;28;20080;-78
2022/10/20 07:48:48;;;;;;;9.48;6.82;;;14.00;99.90;;;;;;5038018;28;20030;-77
2022/10/20 07:51:29;;;;;;;11.18;7.28;;;14.10;99.90;;;;;;5038077;28;20026;-77
2022/10/20 07:53:59;;;;;;;11.18;7.30;;;14.20;99.90;;;;;;5038966;28;20021;-79
2022/10/20 07:56:28;;;;;;;11.07;7.57;;;14.30;99.90;;;;;;5039308;28;20381;-78
2022/10/20 07:58:57;;;;;;;10.73;6.72;;;14.30;99.90;;;;;;5037457;28;20028;-78
2022/10/20 08:01:23;;;;;;;11.75;7.28;;;14.40;99.90;;;;;;5037781;28;20037;-78
2022/10/20 08:03:51;;;;;;;11.20;6.88;;;14.50;99.90;;;;;;5041200;28;20018;-78
2022/10/20 08:06:23;;;;;;;11.88;7.22;;;14.60;99.90;;;;;;5038840;28;20033;-79
2022/10/20 08:08:52;;;;;;;12.05;7.32;;;14.70;99.90;;;;;;5035734;28;20023;-79
2022/10/20 08:11:19;;;;;;;10.15;6.85;;;14.70;99.90;;;;;;5036046;28;20049;-78
2022/10/20 08:13:53;;;;;;;9.55;6.57;;;14.80;99.90;;;;;;5035539;28;20101;-76
2022/10/20 08:16:21;;;;;;;12.90;6.60;;;14.90;99.90;;;;;;5034085;28;20049;-79
2022/10/20 08:18:50;;;;;;;11.85;7.72;;;14.90;99.90;;;;;;5042362;28;20029;-79
2022/10/20 08:21:22;;;;;;;10.30;7.47;;;15.00;99.90;;;;;;5036802;28;20121;-77
2022/10/20 08:23:48;;;;;;;10.55;7.53;;;15.00;99.90;;;;;;5038334;28;20024;-77
2022/10/20 08:26:23;;;;;;;10.20;6.45;;;15.10;99.90;;;;;;5038025;28;20017;-76
2022/10/20 08:28:51;;;;;;;9.05;6.95;;;15.20;99.90;;;;;;5033172;28;20022;-76
2022/10/20 08:31:16;;;;;;;10.55;6.93;;;15.20;99.90;;;;;;5037230;28;20049;-77
2022/10/20 08:33:42;;;;;;;10.52;7.32;;;15.30;99.90;;;;;;5044371;28;20025;-77
2022/10/20 08:36:13;;;;;;;9.68;6.68;;;15.30;99.90;;;;;;5029452;28;20503;-77
2022/10/20 08:38:42;;;;;;;12.02;6.82;;;15.40;99.90;;;;;;5035976;28;20021;-78
2022/10/20 08:41:19;;;;;;;10.55;6.90;;;15.50;99.90;;;;;;5043314;28;20013;-77
2022/10/20 08:43:51;;;;;;;9.35;6.22;;;15.60;99.90;;;;;;5037938;28;20025;-77
2022/10/20 08:46:26;;;;;;;9.95;6.45;;;15.60;99.90;;;;;;5051522;28;20026;-77
2022/10/20 08:48:55;;;;;;;10.07;6.10;;;15.70;99.90;;;;;;5024309;28;20584;-77
2022/10/20 08:51:24;;;;;;;9.52;6.07;;;15.80;99.90;;;;;;5033300;28;20055;-77
2022/10/20 08:53:57;;;;;;;11.82;5.80;;;15.90;99.90;;;;;;5036336;28;20105;-77
2022/10/20 08:56:29;;;;;;;9.63;5.97;;;16.00;99.90;;;;;;5037628;28;20025;-78
2022/10/20 08:58:57;;;;;;;8.68;6.38;;;16.00;99.90;;;;;;5036839;28;20037;-78
2022/10/20 09:01:34;;;;;;;12.02;6.50;;;16.00;99.90;;;;;;5035483;28;20490;-77
2022/10/20 09:04:33;;;;;;;10.27;5.82;;;16.10;99.90;;;;;;5029327;28;20079;-76
2022/10/20 09:07:21;;;;;;;9.57;5.50;;;16.20;99.90;;;;;;5025620;28;20033;-77
2022/10/20 09:09:47;;;;;;;8.02;5.40;;;16.40;99.90;;;;;;5023304;28;20018;-76
2022/10/20 09:12:20;;;;;;;9.98;5.53;;;16.40;99.90;;;;;;5033527;28;20044;-77
2022/10/20 09:14:51;;;;;;;7.80;5.45;;;16.50;99.90;;;;;;5036364;28;20028;-78
2022/10/20 09:17:17;;;;;;;7.40;5.45;;;16.50;99.90;;;;;;5031990;28;20025;-77
2022/10/20 09:19:53;;;;;;;11.15;5.72;;;16.50;99.90;;;;;;5032154;28;20025;-77
2022/10/20 09:22:24;;;;;;;10.35;5.07;;;16.60;99.90;;;;;;5031865;28;20026;-77
2022/10/20 09:24:53;;;;;;;9.10;5.95;;;16.60;99.90;;;;;;5036359;28;20022;-77
2022/10/20 09:27:38;;;;;;;8.63;5.20;;;16.60;99.90;;;;;;5035621;28;20030;-76
2022/10/20 09:30:19;;;;;;;8.93;5.60;;;16.70;99.90;;;;;;5033284;28;20021;-77
2022/10/20 09:32:54;;;;;;;8.50;5.80;;;16.80;99.90;;;;;;5034886;28;20030;-78
2022/10/20 09:35:35;;;;;;;13.20;6.22;;;16.80;99.90;;;;;;5053198;28;20033;-77
2022/10/20 09:38:08;;;;;;;6.57;4.80;;;16.80;99.90;;;;;;5028245;28;20032;-77
2022/10/20 09:40:34;;;;;;;10.13;5.83;;;16.90;99.90;;;;;;5017038;28;20491;-76
2022/10/20 09:43:14;;;;;;;8.50;5.78;;;16.90;99.90;;;;;;5013615;28;20029;-75
2022/10/20 09:45:52;;;;;;;9.80;4.68;;;16.90;99.90;;;;;;5014999;28;20034;-76
2022/10/20 09:48:24;;;;;;;11.02;6.00;;;17.00;99.90;;;;;;5048986;28;20333;-76
2022/10/20 09:50:54;;;;;;;6.75;5.05;;;17.00;99.90;;;;;;5042746;28;20044;-76
2022/10/20 09:53:26;;;;;;;7.25;4.90;;;17.00;99.90;;;;;;5029342;28;20025;-75
2022/10/20 09:55:58;;;;;;;6.88;4.70;;;17.10;99.90;;;;;;5022591;28;20040;-76
2022/10/20 09:58:28;;;;;;;9.80;4.82;;;17.10;99.90;;;;;;5032322;28;20021;-75
2022/10/20 10:01:10;;;;;;;8.88;5.25;;;17.10;99.90;;;;;;5030982;28;20033;-75
2022/10/20 10:03:45;;;;;;;7.20;5.13;;;17.10;99.90;;;;;;5032381;28;20021;-76
2022/10/20 10:06:29;;;;;;;8.70;5.80;;;17.10;99.90;;;;;;5031074;28;20053;-76
2022/10/20 10:08:57;;;;;;;8.18;4.93;;;17.20;99.90;;;;;;5030047;28;22111;-75
2022/10/20 10:11:33;;;;;;;9.10;5.15;;;17.30;99.90;;;;;;5029963;28;20107;-76
2022/10/20 10:14:00;;;;;;;9.43;5.38;;;17.30;99.90;;;;;;5032332;28;20037;-76
2022/10/20 10:16:27;;;;;;;6.70;4.72;;;17.40;99.90;;;;;;5032069;28;20025;-76
2022/10/20 10:19:03;;;;;;;7.50;4.50;;;17.40;99.90;;;;;;5032286;28;20540;-76
2022/10/20 10:21:41;;;;;;;7.82;5.40;;;17.50;99.90;;;;;;5031885;28;20460;-76
2022/10/20 10:24:39;;;;;;;7.50;5.35;;;17.60;99.90;;;;;;5047520;28;20030;-75
2022/10/20 10:27:18;;;;;;;7.70;5.43;;;17.70;99.90;;;;;;5043868;28;20259;-76
2022/10/20 10:29:44;;;;;;;9.73;5.80;;;17.80;99.90;;;;;;5031190;28;20090;-75
2022/10/20 10:32:23;;;;;;;7.00;4.72;;;17.90;99.90;;;;;;5033512;28;20029;-74
2022/10/20 10:34:48;;;;;;;7.25;4.05;;;17.90;99.90;;;;;;5042897;28;20045;-75
2022/10/20 10:37:18;;;;;;;7.32;4.57;;;17.90;99.90;;;;;;5023952;28;20386;-76
2022/10/20 10:39:44;;;;;;;7.63;4.40;;;18.00;99.90;;;;;;5047674;28;20032;-76
2022/10/20 10:42:29;;;;;;;5.90;4.05;;;18.00;99.90;;;;;;5030812;28;20069;-76
2022/10/20 10:45:23;;;;;;;7.45;4.57;;;18.00;99.90;;;;;;5029428;28;20029;-76
2022/10/20 10:48:06;;;;;;;13.18;4.38;;;18.00;99.90;;;;;;5032800;28;20032;-77
2022/10/20 10:50:37;;;;;;;6.93;4.73;;;18.00;99.90;;;;;;5031043;28;20032;-76
2022/10/20 10:53:06;;;;;;;7.75;4.35;;;18.00;99.90;;;;;;5042061;28;20017;-76
2022/10/20 10:55:58;;;;;;;6.18;4.32;;;18.00;99.90;;;;;;5058575;28;20079;-77
2022/10/20 10:58:38;;;;;;;9.05;4.50;;;18.00;99.90;;;;;;5036421;28;20075;-77
2022/10/20 11:01:10;;;;;;;6.90;4.22;;;18.00;99.90;;;;;;5051022;28;20025;-76
2022/10/20 11:04:02;;;;;;;6.57;3.92;;;17.90;99.90;;;;;;5035476;28;20112;-75
2022/10/20 11:06:43;;;;;;;7.70;4.60;;;18.00;99.90;;;;;;5034533;28;20034;-77
2022/10/20 11:09:21;;;;;;;5.93;4.32;;;18.10;99.90;;;;;;5049206;28;20021;-75
2022/10/20 11:11:55;;;;;;;8.85;4.28;;;18.10;99.90;;;;;;5034406;28;20028;-76
2022/10/20 11:14:39;;;;;;;8.90;5.32;;;18.10;99.90;;;;;;5031916;28;20478;-75
2022/10/20 11:17:59;;;;;;;8.10;4.80;;;18.20;99.90;;;;;;5037031;28;20034;-75
2022/10/20 11:20:52;;;;;;;5.70;4.13;;;18.20;99.90;;;;;;5044429;28;20111;-76
2022/10/20 11:23:33;;;;;;;6.97;5.00;;;18.30;99.90;;;;;;5045145;28;20080;-76
2022/10/20 11:26:37;;;;;;;6.75;4.63;;;18.30;99.90;;;;;;5029304;28;20096;-76
2022/10/20 11:29:17;;;;;;;9.85;4.80;;;18.40;99.90;;;;;;5028980;28;20103;-75
2022/10/20 11:31:54;;;;;;;7.05;3.83;;;18.50;99.90;;;;;;5033012;28;20079;-76
2022/10/20 11:34:30;;;;;;;6.28;3.97;;;18.50;99.90;;;;;;5026812;28;20494;-74
2022/10/20 11:37:22;;;;;;;7.90;3.63;;;18.60;99.90;;;;;;5025238;28;20087;-76
2022/10/20 11:39:57;;;;;;;5.07;3.47;;;18.70;99.90;;;;;;5031283;28;20500;-74
2022/10/20 11:42:38;;;;;;;8.77;3.15;;;18.70;99.90;;;;;;5033361;28;20025;-75
2022/10/20 11:45:20;;;;;;;8.32;3.92;;;18.80;99.90;;;;;;5034018;28;20090;-75
2022/10/20 11:47:48;;;;;;;5.93;3.22;;;18.80;99.90;;;;;;5034398;28;20097;-75
2022/10/20 11:50:17;;;;;;;11.63;3.83;;;18.80;99.90;;;;;;5033373;28;20033;-75
2022/10/20 11:53:10;;;;;;;5.78;3.15;;;18.80;99.90;;;;;;5032007;28;20052;-73
2022/10/20 11:56:04;;;;;;;10.88;3.75;;;18.80;99.90;;;;;;5035889;28;20029;-73
2022/10/20 11:58:59;;;;;;;8.77;3.15;;;18.70;99.90;;;;;;5041192;28;20128;-74
2022/10/20 12:01:43;;;;;;;5.40;2.88;;;18.70;99.90;;;;;;5036050;28;20122;-74
2022/10/20 12:04:30;;;;;;;6.10;3.10;;;18.70;99.90;;;;;;5026492;28;20045;-74
2022/10/20 12:07:29;;;;;;;9.02;3.30;;;18.60;99.90;;;;;;5046021;28;20030;-73
2022/10/20 12:10:00;;;;;;;9.82;3.63;;;18.60;99.90;;;;;;5047369;28;20363;-76
2022/10/20 12:12:37;;;;;;;6.95;3.40;;;18.70;99.90;;;;;;5033400;28;20521;-74
2022/10/20 12:15:19;;;;;;;6.88;3.53;;;18.70;99.90;;;;;;5034564;28;20026;-74
2022/10/20 12:17:45;;;;;;;4.20;3.10;;;18.70;99.90;;;;;;5032491;28;20145;-75
2022/10/20 12:20:20;;;;;;;8.55;3.45;;;18.70;99.90;;;;;;5033711;28;20461;-74
2022/10/20 12:22:52;;;;;;;7.18;3.75;;;18.70;99.90;;;;;;5029599;28;20410;-73
2022/10/20 12:25:37;;;;;;;5.18;3.30;;;18.80;99.90;;;;;;5035211;28;20438;-74
2022/10/20 12:28:21;;;;;;;5.45;3.15;;;18.80;99.90;;;;;;5028313;28;20033;-74
2022/10/20 12:30:54;;;;;;;;;;;18.80;99.90;;;;;;5027517;28;20030;-74
2022/10/20 12:33:49;;;;;;;6.00;3.95;;;18.80;99.90;;;;;;5031685;28;19909;-75
2022/10/20 12:36:18;;;;;;;7.85;3.60;;;18.80;99.90;;;;;;5042393;28;20064;-75
2022/10/20 12:39:12;;;;;;;5.47;3.70;;;18.80;99.90;;;;;;5044255;28;20443;-74
2022/10/20 12:41:53;;;;;;;8.93;4.05;;;18.80;99.90;;;;;;5018954;28;20076;-76
2022/10/20 12:44:20;;;;;;;6.35;3.70;;;18.70;99.90;;;;;;5026158;28;20029;-76
2022/10/20 12:46:55;;;;;;;8.95;3.83;;;18.70;99.90;;;;;;5032005;28;20052;-75
2022/10/20 12:49:30;;;;;;;6.00;3.63;;;18.70;99.90;;;;;;5025418;28;20114;-76
2022/10/20 12:51:59;;;;;;;5.25;3.35;;;18.70;99.90;;;;;;5047207;28;20033;-75
2022/10/20 12:54:38;;;;;;;5.03;3.42;;;18.60;99.90;;;;;;5031669;28;20053;-75
2022/10/20 12:57:29;;;;;;;7.28;3.78;;;18.60;99.90;;;;;;5027800;28;20104;-75
2022/10/20 12:59:54;;;;;;;4.97;3.05;;;18.60;99.90;;;;;;5025130;28;20030;-77
2022/10/20 13:02:32;;;;;;;7.20;3.40;;;18.60;99.90;;;;;;5042573;28;20033;-75
2022/10/20 13:05:12;;;;;;;6.28;3.00;;;18.50;99.90;;;;;;5030772;28;20518;-75